Time;durP1;ratioP1;P1;durP2;ratioP2;P2;SDS_P1;SDS_P2;PMS_P1;PMS_P2;Temp;Humidity;BMP_temperature;BMP_pressure;BME280_temperature;BME280_humidity;BME280_pressure;Samples;Min_cycle;Max_cycle;Signal;HPM_P1;HPM_P2
2021/06/10 00:02:28;;;;;;;5.05;3.33;;;;;;;;;;6941980;28;20127;-82
2021/06/10 00:05:48;;;;;;;5.20;3.60;;;;;;;;;;6936449;28;20062;-83
2021/06/10 00:09:09;;;;;;;3.85;3.10;;;;;;;;;;6906102;28;20401;-82
2021/06/10 00:12:29;;;;;;;8.15;3.65;;;;;;;;;;6914646;28;20107;-82
2021/06/10 00:15:50;;;;;;;8.30;3.40;;;;;;;;;;6916305;28;20130;-83
2021/06/10 00:19:12;;;;;;;4.95;3.55;;;;;;;;;;6942070;28;20049;-83
2021/06/10 00:22:33;;;;;;;13.52;3.80;;;;;;;;;;6941568;28;20136;-83
2021/06/10 00:25:53;;;;;;;4.78;3.22;;;;;;;;;;6947284;28;20064;-83
2021/06/10 00:29:14;;;;;;;17.40;4.30;;;;;;;;;;6939950;28;20077;-82
2021/06/10 00:32:35;;;;;;;5.75;3.10;;;;;;;;;;6941560;28;20103;-83
2021/06/10 00:35:55;;;;;;;7.22;3.38;;;;;;;;;;6934827;28;20062;-83
2021/06/10 00:39:16;;;;;;;8.13;3.20;;;;;;;;;;6934779;28;20053;-83
2021/06/10 00:42:37;;;;;;;5.63;3.33;;;;;;;;;;6940538;28;20103;-83
2021/06/10 00:45:58;;;;;;;12.23;3.30;;;;;;;;;;6937546;28;20590;-83
2021/06/10 00:49:18;;;;;;;5.88;3.40;;;;;;;;;;6936813;28;20136;-83
2021/06/10 00:52:39;;;;;;;9.93;3.25;;;;;;;;;;6940777;28;20116;-83
2021/06/10 00:56:01;;;;;;;9.38;3.47;;;;;;;;;;6934294;28;20050;-84
2021/06/10 00:59:22;;;;;;;6.75;3.60;;;;;;;;;;6908129;28;20068;-83
2021/06/10 01:02:43;;;;;;;6.68;3.13;;;;;;;;;;6910713;28;20378;-83
2021/06/10 01:06:25;;;;;;;3.97;3.50;;;;;;;;;;6916482;28;20058;-81
2021/06/10 01:09:55;;;;;;;8.65;3.42;;;;;;;;;;6939581;28;20046;-82
2021/06/10 01:13:25;;;;;;;5.75;3.30;;;;;;;;;;6940238;28;20052;-82
2021/06/10 01:16:47;;;;;;;36.33;3.90;;;;;;;;;;6953422;28;20392;-80
2021/06/10 01:20:15;;;;;;;14.10;3.15;;;;;;;;;;6940331;28;20105;-80
2021/06/10 01:24:13;;;;;;;18.38;3.40;;;;;;;;;;6940925;28;20099;-81
2021/06/10 01:27:40;;;;;;;16.27;3.27;;;;;;;;;;7116441;23;20048;-80
2021/06/10 01:31:10;;;;;;;13.60;3.17;;;;;;;;;;7004864;28;20469;-80
2021/06/10 01:34:31;;;;;;;13.57;2.67;;;;;;;;;;7023045;28;20044;-81
2021/06/10 01:37:54;;;;;;;4.55;3.20;;;;;;;;;;7023218;28;20055;-81
2021/06/10 01:41:19;;;;;;;3.50;2.90;;;;;;;;;;7004894;28;20047;-82
2021/06/10 01:44:40;;;;;;;6.30;3.03;;;;;;;;;;7017140;28;20056;-81
2021/06/10 01:48:01;;;;;;;12.77;3.40;;;;;;;;;;7008052;28;20177;-81
2021/06/10 01:51:24;;;;;;;17.02;3.40;;;;;;;;;;7022880;28;20044;-81
2021/06/10 01:54:45;;;;;;;6.40;2.95;;;;;;;;;;7004624;28;20043;-81
2021/06/10 01:58:06;;;;;;;8.55;3.10;;;;;;;;;;7022471;28;20411;-81
2021/06/10 02:01:28;;;;;;;3.78;2.80;;;;;;;;;;7003481;28;20047;-82
2021/06/10 02:04:49;;;;;;;6.93;2.85;;;;;;;;;;7022449;28;20593;-82
2021/06/10 02:08:12;;;;;;;4.75;2.60;;;;;;;;;;7004679;28;20044;-85
2021/06/10 02:11:34;;;;;;;5.18;2.95;;;;;;;;;;7022481;28;20055;-84
2021/06/10 02:14:55;;;;;;;9.38;2.92;;;;;;;;;;7005800;28;20047;-83
2021/06/10 02:18:15;;;;;;;2.92;2.70;;;;;;;;;;7009437;28;20052;-82
2021/06/10 02:21:36;;;;;;;7.25;3.05;;;;;;;;;;6994825;28;20045;-83
2021/06/10 02:24:56;;;;;;;6.22;2.85;;;;;;;;;;7009198;28;20074;-82
2021/06/10 02:28:16;;;;;;;5.63;2.97;;;;;;;;;;7026901;28;20560;-82
2021/06/10 02:31:37;;;;;;;3.65;2.83;;;;;;;;;;7027137;28;20056;-82
2021/06/10 02:35:01;;;;;;;2.95;2.65;;;;;;;;;;7026751;28;20054;-83
2021/06/10 02:38:24;;;;;;;5.18;2.85;;;;;;;;;;7026723;28;20079;-83
2021/06/10 02:41:49;;;;;;;8.80;2.53;;;;;;;;;;6998663;28;20052;-82
2021/06/10 02:45:10;;;;;;;7.57;2.80;;;;;;;;;;7002155;28;20079;-82
2021/06/10 02:48:31;;;;;;;2.70;2.50;;;;;;;;;;7025053;28;20063;-82
2021/06/10 02:51:52;;;;;;;3.03;2.70;;;;;;;;;;7003408;28;20083;-82
2021/06/10 02:55:14;;;;;;;5.78;2.58;;;;;;;;;;7024359;28;20063;-82
2021/06/10 02:58:38;;;;;;;3.97;2.50;;;;;;;;;;7008416;28;20052;-82
2021/06/10 03:01:58;;;;;;;4.25;2.58;;;;;;;;;;7002897;28;20122;-82
2021/06/10 03:05:20;;;;;;;4.18;2.80;;;;;;;;;;6987966;28;20052;-83
2021/06/10 03:08:41;;;;;;;3.42;2.80;;;;;;;;;;7008028;28;20048;-83
2021/06/10 03:12:02;;;;;;;2.70;2.50;;;;;;;;;;7002439;28;20086;-83
2021/06/10 03:15:22;;;;;;;3.28;2.70;;;;;;;;;;7021947;28;20050;-83
2021/06/10 03:18:43;;;;;;;6.35;2.97;;;;;;;;;;7025612;28;20052;-82
2021/06/10 03:22:04;;;;;;;3.92;2.65;;;;;;;;;;7004202;28;20044;-82
2021/06/10 03:25:26;;;;;;;6.32;2.92;;;;;;;;;;6997420;28;20088;-82
2021/06/10 03:28:46;;;;;;;2.47;2.28;;;;;;;;;;7007528;28;20068;-82
2021/06/10 03:32:08;;;;;;;4.15;2.83;;;;;;;;;;7024394;28;20051;-83
2021/06/10 03:35:28;;;;;;;2.60;2.40;;;;;;;;;;7007567;28;20040;-83
2021/06/10 03:38:50;;;;;;;5.20;2.60;;;;;;;;;;7006195;28;20044;-81
2021/06/10 03:42:12;;;;;;;4.03;2.53;;;;;;;;;;7005068;28;20091;-81
2021/06/10 03:45:33;;;;;;;6.50;2.58;;;;;;;;;;7007461;28;20052;-82
2021/06/10 03:48:53;;;;;;;6.70;2.75;;;;;;;;;;7025638;28;20056;-82
2021/06/10 03:52:13;;;;;;;2.75;2.55;;;;;;;;;;7004985;28;20483;-83
2021/06/10 03:55:34;;;;;;;8.52;2.67;;;;;;;;;;6992029;28;20048;-82
2021/06/10 03:58:54;;;;;;;14.57;2.70;;;;;;;;;;7025499;28;20040;-82
2021/06/10 04:02:15;;;;;;;6.43;2.60;;;;;;;;;;7025202;28;20052;-82
2021/06/10 04:05:35;;;;;;;3.97;2.35;;;;;;;;;;7011821;28;20444;-82
2021/06/10 04:08:56;;;;;;;5.53;3.22;;;;;;;;;;7025209;28;20375;-82
2021/06/10 04:12:16;;;;;;;2.92;2.63;;;;;;;;;;7024834;28;20052;-82
2021/06/10 04:15:37;;;;;;;5.25;2.60;;;;;;;;;;7023961;28;20048;-81
2021/06/10 04:18:57;;;;;;;21.23;2.65;;;;;;;;;;7024872;28;20087;-84
2021/06/10 04:22:17;;;;;;;7.07;2.58;;;;;;;;;;7024484;28;20052;-85
2021/06/10 04:25:38;;;;;;;16.58;2.83;;;;;;;;;;7018896;28;20048;-84
2021/06/10 04:28:59;;;;;;;10.15;2.85;;;;;;;;;;7024469;28;20036;-84
2021/06/10 04:32:19;;;;;;;4.93;2.70;;;;;;;;;;7024448;28;20155;-84
2021/06/10 04:35:40;;;;;;;6.13;2.33;;;;;;;;;;7016973;28;20135;-86
2021/06/10 04:39:00;;;;;;;5.90;2.60;;;;;;;;;;7024260;28;20047;-86
2021/06/10 04:42:22;;;;;;;13.50;2.45;;;;;;;;;;7020029;28;20093;-84
2021/06/10 04:45:42;;;;;;;15.63;2.70;;;;;;;;;;7015230;28;20471;-84
2021/06/10 04:49:03;;;;;;;9.02;2.42;;;;;;;;;;7023916;28;20048;-84
2021/06/10 04:52:24;;;;;;;6.70;2.50;;;;;;;;;;7023999;28;20122;-84
2021/06/10 04:55:44;;;;;;;4.68;2.17;;;;;;;;;;7022137;28;20052;-85
2021/06/10 04:59:04;;;;;;;10.07;2.90;;;;;;;;;;7023793;28;20036;-83
2021/06/10 05:02:25;;;;;;;4.15;2.40;;;;;;;;;;7024202;28;20059;-84
2021/06/10 05:05:45;;;;;;;14.93;2.63;;;;;;;;;;7021765;28;20204;-87
2021/06/10 05:09:06;;;;;;;2.67;2.33;;;;;;;;;;7023588;28;20139;-86
2021/06/10 05:12:26;;;;;;;3.58;2.17;;;;;;;;;;7023994;28;20048;-86
2021/06/10 05:15:47;;;;;;;2.97;2.35;;;;;;;;;;7011420;28;20488;-84
2021/06/10 05:19:07;;;;;;;3.50;2.35;;;;;;;;;;7021827;28;20066;-85
2021/06/10 05:22:28;;;;;;;7.55;2.63;;;;;;;;;;7023301;28;20128;-82
2021/06/10 05:25:49;;;;;;;3.78;2.53;;;;;;;;;;7022035;28;20110;-85
2021/06/10 05:29:09;;;;;;;5.35;2.40;;;;;;;;;;7023079;28;20048;-85
2021/06/10 05:32:30;;;;;;;6.95;2.25;;;;;;;;;;7023327;28;20044;-85
2021/06/10 05:35:50;;;;;;;3.65;3.20;;;;;;;;;;7015759;28;20483;-86
2021/06/10 05:39:11;;;;;;;4.90;3.30;;;;;;;;;;7015459;28;20127;-87
2021/06/10 05:42:31;;;;;;;6.53;3.50;;;;;;;;;;7007632;28;20391;-85
2021/06/10 05:45:52;;;;;;;8.38;7.60;;;;;;;;;;7015944;28;20043;-83
2021/06/10 05:49:13;;;;;;;8.55;7.75;;;;;;;;;;7012513;28;20209;-85
2021/06/10 05:52:34;;;;;;;16.10;6.68;;;;;;;;;;7004189;28;20368;-83
2021/06/10 05:55:54;;;;;;;4.43;2.45;;;;;;;;;;6999627;28;20563;-85
2021/06/10 05:59:15;;;;;;;5.30;2.50;;;;;;;;;;7000543;28;20044;-85
2021/06/10 06:02:36;;;;;;;4.80;2.53;;;;;;;;;;7003066;28;20128;-85
2021/06/10 06:05:57;;;;;;;10.85;2.47;;;;;;;;;;7003687;28;20051;-84
2021/06/10 06:09:18;;;;;;;9.65;2.30;;;;;;;;;;7005827;28;20074;-85
2021/06/10 06:12:40;;;;;;;6.95;2.80;;;;;;;;;;7006244;28;20040;-84
2021/06/10 06:16:05;;;;;;;10.52;2.55;;;;;;;;;;7003189;28;20495;-84
2021/06/10 06:19:26;;;;;;;13.93;2.90;;;;;;;;;;7004990;28;20573;-86
2021/06/10 06:22:46;;;;;;;15.15;2.88;;;;;;;;;;7002399;28;20049;-87
2021/06/10 06:26:09;;;;;;;7.68;2.60;;;;;;;;;;6975269;28;20361;-84
2021/06/10 06:29:31;;;;;;;35.85;3.50;;;;;;;;;;7000507;28;20143;-85
2021/06/10 06:32:51;;;;;;;27.55;4.57;;;;;;;;;;6997546;28;20056;-83
2021/06/10 06:36:12;;;;;;;16.35;4.00;;;;;;;;;;6999909;28;20071;-83
2021/06/10 06:39:32;;;;;;;20.98;3.70;;;;;;;;;;7021107;28;20107;-82
2021/06/10 06:42:53;;;;;;;26.80;3.85;;;;;;;;;;7014800;28;20041;-84
2021/06/10 06:46:14;;;;;;;22.90;3.78;;;;;;;;;;7011278;28;20048;-84
2021/06/10 06:49:35;;;;;;;25.83;3.65;;;;;;;;;;7004577;28;20047;-85
2021/06/10 06:52:55;;;;;;;13.10;2.97;;;;;;;;;;7006203;28;20036;-83
2021/06/10 06:56:16;;;;;;;18.15;3.20;;;;;;;;;;7001621;28;20135;-83
2021/06/10 06:59:36;;;;;;;18.83;3.22;;;;;;;;;;7007021;28;20060;-83
2021/06/10 07:02:57;;;;;;;8.80;2.70;;;;;;;;;;7007495;28;20044;-83
2021/06/10 07:06:17;;;;;;;11.35;3.17;;;;;;;;;;7009252;28;20055;-83
2021/06/10 07:09:37;;;;;;;15.70;3.28;;;;;;;;;;6998172;28;20929;-83
2021/06/10 07:12:58;;;;;;;24.90;3.42;;;;;;;;;;7010689;28;20040;-82
2021/06/10 07:16:18;;;;;;;19.73;3.25;;;;;;;;;;7006388;28;20127;-81
2021/06/10 07:19:39;;;;;;;14.88;3.05;;;;;;;;;;7012700;28;20546;-82
2021/06/10 07:23:00;;;;;;;12.20;3.17;;;;;;;;;;7009324;28;20131;-82
2021/06/10 07:26:21;;;;;;;13.60;2.90;;;;;;;;;;7010321;28;20122;-81
2021/06/10 07:29:41;;;;;;;9.90;2.67;;;;;;;;;;7007214;28;20151;-82
2021/06/10 07:33:03;;;;;;;13.60;3.03;;;;;;;;;;7005942;28;20491;-82
2021/06/10 07:36:27;;;;;;;15.32;3.40;;;;;;;;;;7004663;28;20056;-81
2021/06/10 07:39:47;;;;;;;10.13;2.50;;;;;;;;;;6999985;28;20045;-81
2021/06/10 07:43:08;;;;;;;14.85;3.40;;;;;;;;;;7008010;28;20043;-81
2021/06/10 07:46:29;;;;;;;9.43;2.90;;;;;;;;;;7007216;28;20060;-82
2021/06/10 07:49:50;;;;;;;9.88;3.42;;;;;;;;;;7025178;28;20051;-82
2021/06/10 07:53:10;;;;;;;7.53;2.78;;;;;;;;;;7011442;28;20044;-83
2021/06/10 07:56:30;;;;;;;11.00;3.05;;;;;;;;;;7031326;28;20100;-82
2021/06/10 07:59:51;;;;;;;8.35;2.70;;;;;;;;;;7011564;28;20127;-82
2021/06/10 08:03:11;;;;;;;9.20;2.97;;;;;;;;;;7018376;28;20055;-83
2021/06/10 08:06:32;;;;;;;7.47;3.08;;;;;;;;;;7010669;28;20057;-83
2021/06/10 08:09:52;;;;;;;12.52;3.00;;;;;;;;;;7008699;28;20040;-82
2021/06/10 08:13:14;;;;;;;10.40;2.75;;;;;;;;;;6988464;28;20044;-82
2021/06/10 08:20:16;;;;;;;5.65;2.72;;;;;;;;;;6958556;28;20135;-83
2021/06/10 08:23:37;;;;;;;5.15;2.83;;;;;;;;;;6964692;28;20047;-83
2021/06/10 08:26:58;;;;;;;4.93;2.70;;;;;;;;;;6961975;28;20041;-82
2021/06/10 08:30:19;;;;;;;5.60;3.40;;;;;;;;;;6964734;28;20053;-83
2021/06/10 08:33:39;;;;;;;7.45;3.20;;;;;;;;;;6964524;28;20074;-82
2021/06/10 08:37:01;;;;;;;12.25;3.70;;;;;;;;;;6960522;28;20136;-82
2021/06/10 08:40:21;;;;;;;6.28;3.42;;;;;;;;;;6963159;28;20041;-82
2021/06/10 08:43:42;;;;;;;7.03;3.42;;;;;;;;;;6947370;28;20140;-82
2021/06/10 08:47:05;;;;;;;5.18;2.80;;;;;;;;;;6965502;28;20504;-84
2021/06/10 08:50:27;;;;;;;6.13;3.33;;;;;;;;;;6946241;28;20408;-84
2021/06/10 08:53:50;;;;;;;5.93;2.88;;;;;;;;;;6963996;28;20049;-85
2021/06/10 08:57:10;;;;;;;7.40;2.80;;;;;;;;;;6970185;28;20044;-84
2021/06/10 09:00:32;;;;;;;13.02;3.42;;;;;;;;;;7003195;28;20043;-85
2021/06/10 09:03:54;;;;;;;14.45;3.05;;;;;;;;;;7001989;28;20057;-84
2021/06/10 09:07:14;;;;;;;7.47;3.13;;;;;;;;;;7003811;28;20054;-84
2021/06/10 09:10:36;;;;;;;7.45;2.72;;;;;;;;;;7004824;28;20446;-85
2021/06/10 09:13:59;;;;;;;4.50;2.65;;;;;;;;;;7002698;28;20052;-90
2021/06/10 09:17:33;;;;;;;6.90;2.63;;;;;;;;;;6989586;28;20083;-85
2021/06/10 09:20:54;;;;;;;8.57;2.42;;;;;;;;;;6990410;28;20438;-86
2021/06/10 09:24:25;;;;;;;6.63;2.50;;;;;;;;;;6990114;28;20559;-85
2021/06/10 09:27:52;;;;;;;4.85;2.80;;;;;;;;;;7008835;28;20048;-86
2021/06/10 09:31:29;;;;;;;4.90;2.30;;;;;;;;;;6986853;28;20071;-87
2021/06/10 09:34:55;;;;;;;3.40;2.20;;;;;;;;;;7009665;28;20044;-86
2021/06/10 09:38:21;;;;;;;3.20;2.28;;;;;;;;;;7014306;28;20055;-87
2021/06/10 09:42:04;;;;;;;3.22;2.17;;;;;;;;;;7001572;28;20036;-86
2021/06/10 09:45:28;;;;;;;6.22;2.40;;;;;;;;;;7016074;28;20060;-85
2021/06/10 09:49:03;;;;;;;3.97;2.17;;;;;;;;;;7004497;28;20040;-86
2021/06/10 09:52:24;;;;;;;2.20;2.00;;;;;;;;;;7012053;28;20536;-88
2021/06/10 09:56:04;;;;;;;4.15;2.20;;;;;;;;;;7009018;28;20044;-86
2021/06/10 10:00:00;;;;;;;3.88;2.45;;;;;;;;;;6965606;28;20054;-86
2021/06/10 10:03:23;;;;;;;4.70;2.47;;;;;;;;;;6877162;28;20464;-87
2021/06/10 10:06:44;;;;;;;5.43;2.28;;;;;;;;;;6882862;28;20061;-85
2021/06/10 10:10:07;;;;;;;5.57;2.13;;;;;;;;;;6851660;28;20046;-86
2021/06/10 10:13:29;;;;;;;3.92;2.25;;;;;;;;;;6872545;28;20055;-86
2021/06/10 10:16:49;;;;;;;6.45;2.40;;;;;;;;;;6875603;28;20051;-86
2021/06/10 10:20:13;;;;;;;6.40;2.33;;;;;;;;;;6861799;28;20065;-87
2021/06/10 10:23:34;;;;;;;3.33;2.10;;;;;;;;;;6875148;28;20596;-86
2021/06/10 10:26:54;;;;;;;6.97;2.58;;;;;;;;;;6865439;28;20073;-86
2021/06/10 10:30:20;;;;;;;6.00;2.88;;;;;;;;;;6878280;28;20133;-86
2021/06/10 10:33:48;;;;;;;4.00;2.55;;;;;;;;;;6860396;28;20054;-86
2021/06/10 10:37:22;;;;;;;3.97;3.17;;;;;;;;;;6956887;28;20499;-84
2021/06/10 10:40:56;;;;;;;7.18;4.10;;;;;;;;;;6997132;28;20391;-84
2021/06/10 10:44:21;;;;;;;5.60;4.32;;;;;;;;;;7027129;28;20040;-84
2021/06/10 10:47:59;;;;;;;5.88;3.92;;;;;;;;;;7008270;28;20048;-85
2021/06/10 10:51:35;;;;;;;7.50;4.93;;;;;;;;;;7026094;28;20044;-86
2021/06/10 10:55:15;;;;;;;8.85;4.60;;;;;;;;;;7025122;28;20119;-93
2021/06/10 10:58:38;;;;;;;7.45;6.22;;;;;;;;;;7039898;28;20048;-93
2021/06/10 11:02:06;;;;;;;11.82;6.60;;;;;;;;;;6992169;28;20054;-93
2021/06/10 11:05:28;;;;;;;10.93;5.95;;;;;;;;;;7007916;28;20153;-93
2021/06/10 11:09:10;;;;;;;6.53;5.53;;;;;;;;;;7021488;28;20052;-91
2021/06/10 11:12:49;;;;;;;8.75;5.93;;;;;;;;;;7023791;28;20044;-91
2021/06/10 11:16:10;;;;;;;9.68;5.65;;;;;;;;;;7013387;28;20051;-88
2021/06/10 11:19:50;;;;;;;6.32;5.10;;;;;;;;;;7003633;28;20135;-88
2021/06/10 11:23:29;;;;;;;5.78;5.18;;;;;;;;;;7020007;28;20049;-87
2021/06/10 11:27:07;;;;;;;5.30;4.47;;;;;;;;;;7000156;28;20107;-87
2021/06/10 11:30:29;;;;;;;7.57;4.50;;;;;;;;;;7018403;28;20097;-87
2021/06/10 11:33:50;;;;;;;4.60;4.10;;;;;;;;;;6999559;28;20033;-88
2021/06/10 11:37:18;;;;;;;7.00;4.18;;;;;;;;;;6997564;28;20061;-88
2021/06/10 11:40:48;;;;;;;6.60;4.25;;;;;;;;;;6990514;28;20483;-88
2021/06/10 11:44:08;;;;;;;6.05;3.92;;;;;;;;;;6990933;28;20040;-88
2021/06/10 11:47:32;;;;;;;4.57;4.18;;;;;;;;;;7006108;28;20102;-87
2021/06/10 11:50:52;;;;;;;4.28;3.80;;;;;;;;;;6992622;28;20101;-87
2021/06/10 11:54:14;;;;;;;3.85;3.42;;;;;;;;;;7013858;28;20041;-86
2021/06/10 11:57:35;;;;;;;4.13;3.72;;;;;;;;;;6995409;28;20052;-87
2021/06/10 12:00:56;;;;;;;4.38;3.67;;;;;;;;;;7004219;28;20186;-86
2021/06/10 12:04:18;;;;;;;5.63;3.88;;;;;;;;;;7011184;28;20045;-85
2021/06/10 12:07:38;;;;;;;4.85;3.42;;;;;;;;;;7004420;28;20043;-86
2021/06/10 12:11:08;;;;;;;6.05;3.45;;;;;;;;;;6980716;28;21744;-88
2021/06/10 12:14:38;;;;;;;4.75;3.45;;;;;;;;;;6990138;28;20073;-86
2021/06/10 12:18:03;;;;;;;3.80;3.40;;;;;;;;;;7007357;28;20482;-84
2021/06/10 12:21:25;;;;;;;4.45;3.30;;;;;;;;;;7020374;28;20139;-84
2021/06/10 12:24:46;;;;;;;4.68;3.50;;;;;;;;;;7022842;28;20495;-85
2021/06/10 12:28:06;;;;;;;4.25;3.85;;;;;;;;;;7000067;28;20186;-84
2021/06/10 12:31:29;;;;;;;4.47;3.60;;;;;;;;;;7024378;28;20134;-83
2021/06/10 12:34:54;;;;;;;7.43;4.03;;;;;;;;;;7013110;28;20055;-84
2021/06/10 12:38:16;;;;;;;6.43;3.40;;;;;;;;;;7009841;28;20074;-85
2021/06/10 12:41:42;;;;;;;7.53;3.55;;;;;;;;;;7003976;28;20131;-84
2021/06/10 12:45:02;;;;;;;5.53;4.13;;;;;;;;;;7024350;28;20059;-84
2021/06/10 12:48:27;;;;;;;5.68;4.00;;;;;;;;;;7001868;28;20088;-83
2021/06/10 12:51:52;;;;;;;6.25;4.00;;;;;;;;;;7017502;28;20456;-83
2021/06/10 12:55:13;;;;;;;7.72;4.00;;;;;;;;;;7011038;28;20055;-83
2021/06/10 12:58:34;;;;;;;6.72;3.72;;;;;;;;;;7015935;28;20139;-82
2021/06/10 13:02:16;;;;;;;4.50;3.67;;;;;;;;;;7020405;28;20040;-82
2021/06/10 13:05:38;;;;;;;7.75;3.67;;;;;;;;;;7023673;28;20040;-82
2021/06/10 13:08:58;;;;;;;4.35;3.75;;;;;;;;;;7005493;28;20040;-82
2021/06/10 13:12:26;;;;;;;4.10;3.65;;;;;;;;;;7017153;28;20173;-81
2021/06/10 13:15:48;;;;;;;5.47;3.80;;;;;;;;;;7023181;28;20041;-81
2021/06/10 13:19:26;;;;;;;5.72;4.00;;;;;;;;;;7019710;28;20120;-80
2021/06/10 13:22:47;;;;;;;9.43;3.75;;;;;;;;;;7009560;28;20044;-87
2021/06/10 13:26:29;;;;;;;8.00;3.33;;;;;;;;;;7068136;22;20519;-83
2021/06/10 13:29:55;;;;;;;5.82;2.92;;;;;;;;;;6971353;28;20465;-80
2021/06/10 13:33:21;;;;;;;3.33;3.03;;;;;;;;;;6948353;28;20179;-82
2021/06/10 13:36:52;;;;;;;7.53;3.20;;;;;;;;;;6953320;28;20090;-81
2021/06/10 13:40:13;;;;;;;6.63;3.55;;;;;;;;;;6938225;28;20071;-80
2021/06/10 13:43:35;;;;;;;3.85;3.20;;;;;;;;;;6953948;28;20390;-79
2021/06/10 13:46:57;;;;;;;6.65;3.65;;;;;;;;;;6953160;28;20053;-80
2021/06/10 13:50:17;;;;;;;9.68;3.78;;;;;;;;;;6974158;28;20048;-80
2021/06/10 13:53:39;;;;;;;5.93;3.20;;;;;;;;;;6956738;28;20055;-81
2021/06/10 13:57:00;;;;;;;6.55;3.80;;;;;;;;;;6944843;28;20048;-80
2021/06/10 14:00:22;;;;;;;22.90;3.50;;;;;;;;;;6960222;28;20045;-79
2021/06/10 14:03:42;;;;;;;29.52;4.35;;;;;;;;;;6948057;28;20041;-86
2021/06/10 14:07:03;;;;;;;78.60;7.63;;;;;;;;;;6942988;28;20090;-84
2021/06/10 14:10:24;;;;;;;80.40;6.68;;;;;;;;;;6968863;28;20495;-84
2021/06/10 14:13:45;;;;;;;21.15;6.03;;;;;;;;;;6964124;28;20045;-82
2021/06/10 14:17:05;;;;;;;20.80;5.45;;;;;;;;;;6965871;28;20049;-83
2021/06/10 14:20:26;;;;;;;29.10;5.10;;;;;;;;;;6944618;28;20041;-82
2021/06/10 14:23:46;;;;;;;11.13;4.35;;;;;;;;;;6967003;28;20049;-82
2021/06/10 14:27:07;;;;;;;15.50;4.65;;;;;;;;;;6974192;28;20040;-85
2021/06/10 14:33:48;;;;;;;27.33;4.20;;;;;;;;;;6962554;28;20063;-80
2021/06/10 14:37:09;;;;;;;8.65;3.97;;;;;;;;;;6971535;28;20180;-79
2021/06/10 14:40:29;;;;;;;6.53;3.53;;;;;;;;;;6953663;28;20064;-81
2021/06/10 14:43:50;;;;;;;6.32;3.35;;;;;;;;;;6961969;28;20045;-81
2021/06/10 14:47:10;;;;;;;11.15;3.55;;;;;;;;;;6971264;28;20131;-80
2021/06/10 14:50:31;;;;;;;5.30;3.45;;;;;;;;;;6970551;28;20457;-80
2021/06/10 14:53:51;;;;;;;8.85;3.45;;;;;;;;;;6971188;28;20041;-79
2021/06/10 14:57:12;;;;;;;6.60;3.72;;;;;;;;;;6905895;28;20052;-81
2021/06/10 15:00:33;;;;;;;13.27;4.00;;;;;;;;;;6914500;28;20054;-81
2021/06/10 15:03:53;;;;;;;4.65;4.10;;;;;;;;;;6957192;28;20053;-80
2021/06/10 15:07:14;;;;;;;6.50;3.90;;;;;;;;;;6953790;28;20492;-81
2021/06/10 15:10:34;;;;;;;5.95;3.55;;;;;;;;;;6936147;28;20586;-81
2021/06/10 15:13:55;;;;;;;3.80;3.42;;;;;;;;;;6928220;28;20489;-81
2021/06/10 15:17:15;;;;;;;4.00;3.55;;;;;;;;;;6955220;28;20136;-80
2021/06/10 15:20:36;;;;;;;6.50;3.97;;;;;;;;;;6954844;28;20139;-79
2021/06/10 15:23:57;;;;;;;6.75;3.80;;;;;;;;;;6960063;28;20051;-80
2021/06/10 15:27:17;;;;;;;7.13;4.13;;;;;;;;;;6964382;28;20072;-81
2021/06/10 15:30:38;;;;;;;9.20;3.70;;;;;;;;;;6970413;28;20053;-79
2021/06/10 15:33:58;;;;;;;5.45;3.92;;;;;;;;;;6952583;28;20122;-80
2021/06/10 15:37:19;;;;;;;4.88;3.92;;;;;;;;;;6978414;28;20068;-82
2021/06/10 15:40:39;;;;;;;4.35;3.78;;;;;;;;;;6970331;28;20048;-82
2021/06/10 15:44:00;;;;;;;6.68;3.20;;;;;;;;;;6970519;28;20483;-80
2021/06/10 15:47:22;;;;;;;4.97;3.47;;;;;;;;;;6944186;28;21515;-81
2021/06/10 15:50:43;;;;;;;4.15;3.40;;;;;;;;;;6969833;28;20071;-81
2021/06/10 15:54:03;;;;;;;4.40;3.30;;;;;;;;;;6952197;28;20102;-82
2021/06/10 15:57:25;;;;;;;4.28;3.08;;;;;;;;;;6940506;28;20491;-82
2021/06/10 16:00:45;;;;;;;4.05;3.25;;;;;;;;;;6970137;28;20044;-82
2021/06/10 16:04:06;;;;;;;4.13;3.13;;;;;;;;;;6969820;28;20133;-84
2021/06/10 16:07:26;;;;;;;3.92;3.08;;;;;;;;;;6925183;28;20052;-80
2021/06/10 16:10:47;;;;;;;6.85;3.55;;;;;;;;;;6968905;28;20194;-82
2021/06/10 16:14:07;;;;;;;9.60;3.10;;;;;;;;;;6951432;28;20555;-82
2021/06/10 16:17:27;;;;;;;6.97;3.50;;;;;;;;;;6966035;28;20522;-86
2021/06/10 16:20:48;;;;;;;7.25;3.30;;;;;;;;;;6951154;28;20124;-85
2021/06/10 16:24:08;;;;;;;6.65;3.58;;;;;;;;;;6969079;28;20047;-84
2021/06/10 16:27:29;;;;;;;12.63;4.50;;;;;;;;;;6967282;28;20071;-84
2021/06/10 16:30:49;;;;;;;8.40;4.90;;;;;;;;;;6969214;28;20380;-85
2021/06/10 16:34:10;;;;;;;6.47;3.65;;;;;;;;;;6968872;28;20475;-85
2021/06/10 16:37:34;;;;;;;6.47;3.50;;;;;;;;;;6962052;28;20491;-85
2021/06/10 16:40:55;;;;;;;4.65;3.72;;;;;;;;;;6969213;28;20056;-83
2021/06/10 16:44:16;;;;;;;6.07;3.50;;;;;;;;;;6927988;28;20056;-85
2021/06/10 16:47:36;;;;;;;6.47;3.80;;;;;;;;;;6968636;28;20041;-85
2021/06/10 16:50:57;;;;;;;7.43;5.72;;;;;;;;;;6949440;28;20045;-83
2021/06/10 16:54:17;;;;;;;7.72;6.55;;;;;;;;;;6969078;28;20120;-84
2021/06/10 16:57:38;;;;;;;5.45;4.65;;;;;;;;;;6960138;28;20049;-86
2021/06/10 17:01:19;;;;;;;8.60;5.32;;;;;;;;;;6951772;28;20491;-86
2021/06/10 17:04:40;;;;;;;6.80;4.35;;;;;;;;;;6966995;28;20495;-84
2021/06/10 17:08:02;;;;;;;6.75;6.05;;;;;;;;;;6960010;28;20492;-85
2021/06/10 17:11:22;;;;;;;8.77;6.72;;;;;;;;;;6941767;28;20037;-87
2021/06/10 17:14:43;;;;;;;8.50;5.28;;;;;;;;;;6960017;28;20127;-84
2021/06/10 17:18:08;;;;;;;6.90;4.70;;;;;;;;;;6946134;28;20132;-84
2021/06/10 17:21:29;;;;;;;7.15;4.40;;;;;;;;;;6968114;28;20056;-83
2021/06/10 17:24:50;;;;;;;7.07;4.57;;;;;;;;;;6968762;28;20041;-83
2021/06/10 17:28:10;;;;;;;5.50;4.00;;;;;;;;;;6964698;28;20128;-82
2021/06/10 17:31:31;;;;;;;3.90;3.45;;;;;;;;;;6966922;28;20052;-83
2021/06/10 17:34:51;;;;;;;5.30;3.65;;;;;;;;;;6968195;28;20076;-83
2021/06/10 17:38:12;;;;;;;5.13;4.40;;;;;;;;;;6965397;28;20049;-83
2021/06/10 17:41:33;;;;;;;4.55;4.00;;;;;;;;;;6965972;28;20123;-83
2021/06/10 17:44:53;;;;;;;7.45;4.72;;;;;;;;;;6957032;28;20054;-82
2021/06/10 17:48:14;;;;;;;7.03;4.32;;;;;;;;;;6951516;28;20041;-82
2021/06/10 17:51:34;;;;;;;6.35;3.78;;;;;;;;;;6951800;28;20096;-82
2021/06/10 17:54:55;;;;;;;6.43;4.32;;;;;;;;;;6959568;28;20075;-81
2021/06/10 17:58:15;;;;;;;5.93;4.00;;;;;;;;;;6963033;28;20048;-81
2021/06/10 18:01:36;;;;;;;5.72;3.60;;;;;;;;;;6964907;28;20095;-81
2021/06/10 18:04:57;;;;;;;19.05;3.55;;;;;;;;;;6933896;28;20491;-81
2021/06/10 18:08:17;;;;;;;4.55;3.70;;;;;;;;;;6960743;28;20132;-81
2021/06/10 18:11:37;;;;;;;4.10;3.58;;;;;;;;;;6961670;28;20079;-81
2021/06/10 18:14:58;;;;;;;8.73;3.80;;;;;;;;;;6963271;28;20037;-81
2021/06/10 18:18:19;;;;;;;7.55;3.88;;;;;;;;;;6957082;28;20057;-82
2021/06/10 18:21:39;;;;;;;4.57;3.38;;;;;;;;;;6931877;28;20069;-81
2021/06/10 18:25:00;;;;;;;4.18;3.35;;;;;;;;;;6967344;28;20092;-81
2021/06/10 18:28:24;;;;;;;4.07;3.35;;;;;;;;;;6967392;28;20098;-79
2021/06/10 18:31:44;;;;;;;3.92;3.53;;;;;;;;;;6967161;28;20476;-81
2021/06/10 18:35:07;;;;;;;4.50;3.30;;;;;;;;;;6959477;28;20497;-81
2021/06/10 18:38:27;;;;;;;6.82;3.40;;;;;;;;;;6963805;28;20049;-81
2021/06/10 18:41:50;;;;;;;8.98;3.47;;;;;;;;;;6971449;28;20072;-80
2021/06/10 18:45:12;;;;;;;7.65;3.50;;;;;;;;;;6959194;28;20135;-81
2021/06/10 18:48:32;;;;;;;4.03;3.30;;;;;;;;;;6948428;28;20060;-81
2021/06/10 18:51:54;;;;;;;6.55;3.40;;;;;;;;;;6964579;28;20128;-81
2021/06/10 18:55:16;;;;;;;8.18;3.55;;;;;;;;;;6941618;28;20045;-80
2021/06/10 18:58:36;;;;;;;3.78;3.33;;;;;;;;;;6947867;28;20060;-81
2021/06/10 19:01:57;;;;;;;6.82;3.40;;;;;;;;;;6966711;28;20078;-81
2021/06/10 19:05:18;;;;;;;8.98;3.55;;;;;;;;;;6973090;28;20045;-81
2021/06/10 19:08:38;;;;;;;7.68;3.63;;;;;;;;;;6966904;28;20140;-81
2021/06/10 19:11:59;;;;;;;8.43;3.85;;;;;;;;;;6964918;28;20044;-81
2021/06/10 19:15:21;;;;;;;5.13;3.53;;;;;;;;;;6959941;28;20041;-81
2021/06/10 19:18:41;;;;;;;5.32;3.30;;;;;;;;;;6967465;28;20484;-81
2021/06/10 19:22:02;;;;;;;5.68;3.25;;;;;;;;;;6965944;28;20047;-81
2021/06/10 19:25:22;;;;;;;5.07;3.30;;;;;;;;;;6970506;28;20049;-81
2021/06/10 19:28:43;;;;;;;3.75;3.35;;;;;;;;;;6970935;28;20115;-81
2021/06/10 19:32:05;;;;;;;4.45;3.67;;;;;;;;;;6970363;28;20076;-81
2021/06/10 19:35:26;;;;;;;6.25;4.28;;;;;;;;;;6951454;28;20446;-81
2021/06/10 19:38:47;;;;;;;8.68;3.63;;;;;;;;;;6970397;28;20446;-81
2021/06/10 19:42:07;;;;;;;4.75;3.42;;;;;;;;;;6968428;28;20569;-81
2021/06/10 19:45:28;;;;;;;4.82;3.83;;;;;;;;;;6968823;28;20373;-82
2021/06/10 19:48:48;;;;;;;10.52;3.85;;;;;;;;;;6968067;28;20045;-81
2021/06/10 19:52:09;;;;;;;6.28;3.70;;;;;;;;;;6962496;28;20120;-81
2021/06/10 19:55:30;;;;;;;4.90;3.80;;;;;;;;;;6967780;28;20051;-81
2021/06/10 19:58:50;;;;;;;7.13;3.78;;;;;;;;;;6959409;28;20061;-81
2021/06/10 20:02:11;;;;;;;8.05;3.75;;;;;;;;;;6968560;28;20132;-81
2021/06/10 20:05:31;;;;;;;5.43;3.42;;;;;;;;;;6965786;28;20094;-81
2021/06/10 20:08:52;;;;;;;6.72;3.60;;;;;;;;;;6965621;28;20041;-81
2021/06/10 20:12:12;;;;;;;7.90;4.18;;;;;;;;;;6947884;28;20128;-81
2021/06/10 20:15:33;;;;;;;5.53;3.70;;;;;;;;;;6969550;28;20051;-81
2021/06/10 20:18:53;;;;;;;7.18;3.75;;;;;;;;;;6969172;28;20052;-81